»·PEaware :: SWA6289 KLAS-KRNO

SWA6289 :: KLAS-KRNO

FLIGHT INFORMATION

Flight Status: Arrived
Operator:
Southwest Airlines
More flights by this operator :: More flights under this callsign
Pilot: Henderson P. (1210)
Aircraft: BOEING 737-800
(B738)
More flights by this aircraft type
Origin: KLAS McCarran Intl
United States
Destination: KRNO Reno/Tahoe Intl
United States
More flights between these airports :: More routes between these airports
Route: SHEAD1 KENNO RUSME2
File this flight plan on PilotEdge
Remarks:
Altitude:
(Current/Filed)
34,000ft
Speed:
(Current/Filed)
457kts
Departed: 05-Feb-19 10:04 PM
Arrived: 05-Feb-19 11:00 PM
Distance/Time
Traveled:
300nm/0:56
Distance/Time
To Go:
Arrived

Flight Plot

Page will automatically refresh every two minutes.

Flight plan parsing failed; only flown route is shown


Map Options




Map Legend


Flown Route
Filed Route
Departure Airport
Arrival Airport
Navaid (VOR, NDB)
Fix

Horizontal Profiles

Position Reports

Time Latitude Longitude Heading Altitude Ground
Speed
05-Feb-19 21:22 36.079597 -115.146224 354 2189ft 0kts
05-Feb-19 21:23 36.079597 -115.146224 354 2189ft 0kts
05-Feb-19 21:24 36.079597 -115.146224 354 2189ft 0kts
05-Feb-19 21:25 36.079597 -115.146224 354 2189ft 0kts
05-Feb-19 21:26 36.079597 -115.146224 354 2189ft 0kts
05-Feb-19 21:27 36.079597 -115.146224 354 2189ft 0kts
05-Feb-19 21:28 36.079597 -115.146224 354 2189ft 0kts
05-Feb-19 21:29 36.079597 -115.146224 354 2189ft 0kts
05-Feb-19 21:30 36.079597 -115.146224 354 2189ft 0kts
05-Feb-19 21:31 36.079597 -115.146224 354 2189ft 0kts
05-Feb-19 21:32 36.079597 -115.146224 354 2189ft 0kts
05-Feb-19 21:33 36.079597 -115.146224 354 2189ft 0kts
05-Feb-19 21:34 36.079597 -115.146224 354 2189ft 0kts
05-Feb-19 21:35 36.079597 -115.146224 354 2189ft 0kts
05-Feb-19 21:36 36.079597 -115.146224 354 2189ft 0kts
05-Feb-19 21:37 36.079597 -115.146224 354 2189ft 0kts
05-Feb-19 21:38 36.079597 -115.146224 354 2189ft 0kts
05-Feb-19 21:39 36.079597 -115.146224 354 2189ft 0kts
05-Feb-19 21:40 36.079597 -115.146224 354 2189ft 0kts
05-Feb-19 21:41 36.079597 -115.146224 354 2189ft 0kts
05-Feb-19 21:42 36.079597 -115.146224 354 2189ft 0kts
05-Feb-19 21:43 36.079597 -115.146224 354 2189ft 0kts
05-Feb-19 21:44 36.079597 -115.146224 354 2189ft 0kts
05-Feb-19 21:45 36.079597 -115.146224 354 2189ft 0kts
05-Feb-19 21:46 36.079597 -115.146224 354 2189ft 0kts
05-Feb-19 21:47 36.079597 -115.146224 354 2189ft 0kts
05-Feb-19 21:48 36.079597 -115.146224 354 2189ft 0kts
05-Feb-19 21:49 36.079597 -115.146224 354 2189ft 0kts
05-Feb-19 21:50 36.079597 -115.146224 354 2189ft 0kts
05-Feb-19 21:51 36.079597 -115.146224 354 2189ft 0kts
05-Feb-19 21:52 36.079597 -115.146224 354 2189ft 0kts
05-Feb-19 21:53 36.079597 -115.146224 354 2189ft 0kts
05-Feb-19 21:54 36.079590 -115.146223 354 2189ft 0kts
05-Feb-19 21:55 36.078973 -115.146151 354 2189ft 2kts
05-Feb-19 21:56 36.078900 -115.146142 354 2189ft 0kts
05-Feb-19 21:57 36.078901 -115.146143 354 2189ft 0kts
05-Feb-19 21:58 36.079205 -115.145440 69 2189ft 11kts
05-Feb-19 21:59 36.078263 -115.140961 91 2189ft 21kts
05-Feb-19 22:00 36.078275 -115.132513 89 2189ft 26kts
05-Feb-19 22:01 36.078312 -115.124597 95 2189ft 19kts
05-Feb-19 22:02 36.076418 -115.122235 270 2189ft 23kts
05-Feb-19 22:03 36.076895 -115.161541 270 3204ft 150kts
05-Feb-19 22:04 36.076787 -115.221847 267 5017ft 219kts
05-Feb-19 22:05 36.034153 -115.273949 199 7732ft 246kts
05-Feb-19 22:06 35.969890 -115.306250 218 11237ft 255kts
05-Feb-19 22:07 35.911943 -115.373349 226 13563ft 306kts
05-Feb-19 22:08 35.888318 -115.471718 264 17288ft 311kts
05-Feb-19 22:09 35.889227 -115.581442 267 18867ft 324kts
05-Feb-19 22:10 35.891295 -115.691050 267 18868ft 318kts
05-Feb-19 22:11 35.893147 -115.801039 266 20329ft 318kts
05-Feb-19 22:12 35.894876 -115.913470 266 22855ft 334kts
05-Feb-19 22:13 35.942892 -116.018621 302 25014ft 387kts
05-Feb-19 22:14 36.021940 -116.114882 305 26870ft 407kts
05-Feb-19 22:15 36.105623 -116.212729 306 28506ft 421kts
05-Feb-19 22:16 36.192295 -116.313108 306 30069ft 429kts
05-Feb-19 22:17 36.279433 -116.413873 306 31849ft 428kts
05-Feb-19 22:18 36.366554 -116.515500 306 33412ft 430kts
05-Feb-19 22:19 36.454362 -116.618204 306 33865ft 434kts
05-Feb-19 22:20 36.541741 -116.720650 307 33875ft 432kts
05-Feb-19 22:21 36.642609 -116.807797 318 33865ft 447kts
05-Feb-19 22:22 36.748802 -116.888493 318 33863ft 448kts
05-Feb-19 22:23 36.855099 -116.969695 318 33861ft 448kts
05-Feb-19 22:24 36.961555 -117.050869 319 33858ft 449kts
05-Feb-19 22:25 37.068082 -117.132426 319 33872ft 449kts
05-Feb-19 22:26 37.174351 -117.214328 319 33875ft 448kts
05-Feb-19 22:27 37.280515 -117.296547 318 33874ft 448kts
05-Feb-19 22:28 37.375683 -117.392685 310 33874ft 438kts
05-Feb-19 22:29 37.468554 -117.492435 311 33866ft 438kts
05-Feb-19 22:30 37.547522 -117.604875 300 33869ft 426kts
05-Feb-19 22:31 37.620815 -117.722520 301 33874ft 427kts
05-Feb-19 22:33 37.694046 -117.840482 301 33891ft 427kts
05-Feb-19 22:34 37.767636 -117.958485 301 33894ft 427kts
05-Feb-19 22:35 37.840808 -118.076483 301 33897ft 427kts
05-Feb-19 22:36 37.914005 -118.195124 301 33899ft 427kts
05-Feb-19 22:37 37.986931 -118.313811 301 33900ft 426kts
05-Feb-19 22:38 38.059887 -118.433000 301 33881ft 428kts
05-Feb-19 22:39 38.132645 -118.552306 301 33886ft 427kts
05-Feb-19 22:40 38.205368 -118.671995 301 33895ft 428kts
05-Feb-19 22:41 38.278082 -118.792111 301 33604ft 427kts
05-Feb-19 22:42 38.350320 -118.911446 301 32456ft 424kts
05-Feb-19 22:43 38.421783 -119.030516 300 29270ft 417kts
05-Feb-19 22:44 38.490388 -119.145334 299 26894ft 396kts
05-Feb-19 22:45 38.550692 -119.257738 295 24618ft 376kts
05-Feb-19 22:46 38.607326 -119.367716 295 22399ft 366kts
05-Feb-19 22:47 38.658990 -119.467617 296 20349ft 363kts
05-Feb-19 22:48 38.714483 -119.576152 297 18133ft 364kts
05-Feb-19 22:49 38.768051 -119.681104 297 17063ft 335kts
05-Feb-19 22:50 38.829799 -119.763187 338 16273ft 332kts
05-Feb-19 22:51 38.923152 -119.770827 356 14792ft 335kts
05-Feb-19 22:52 39.014261 -119.770528 356 13744ft 317kts
05-Feb-19 22:52 39.085733 -119.770342 356 13168ft 297kts
05-Feb-19 22:54 39.184199 -119.770098 357 10948ft 320kts
05-Feb-19 22:55 39.267072 -119.769899 358 9931ft 277kts
05-Feb-19 22:55 39.330322 -119.769724 359 8084ft 268kts
05-Feb-19 22:56 39.397626 -119.769532 359 6439ft 216kts
05-Feb-19 22:57 39.450373 -119.769391 357 5259ft 160kts
05-Feb-19 22:59 39.494819 -119.769283 359 4423ft 100kts
05-Feb-19 22:59 39.503759 -119.771435 266 4423ft 14kts
05-Feb-19 23:00 39.504380 -119.773761 359 4423ft 1kts
05-Feb-19 23:01 39.504383 -119.773761 359 4423ft 0kts
05-Feb-19 23:02 39.504383 -119.773761 359 4423ft 0kts
05-Feb-19 23:03 39.504383 -119.773761 359 4423ft 0kts

Navigation Log

Ident Type
Flight plan parsing failed, navigation log unavailable